createdAt,value
2018-12-12T00:00:55.150Z,5.47
2018-12-12T00:04:08.507Z,4.80
2018-12-12T00:07:23.745Z,5.25
2018-12-12T00:10:30.807Z,5.30
2018-12-12T00:13:38.300Z,5.70
2018-12-12T00:16:51.312Z,5.30
2018-12-12T00:19:59.971Z,6.70
2018-12-12T00:23:07.154Z,4.30
2018-12-12T00:26:15.737Z,5.95
2018-12-12T00:29:24.496Z,5.33
2018-12-12T00:32:33.672Z,5.42
2018-12-12T00:35:43.015Z,5.03
2018-12-12T00:38:50.380Z,5.23
2018-12-12T00:41:58.441Z,4.20
2018-12-12T00:45:07.608Z,4.60
2018-12-12T00:48:17.649Z,4.00
2018-12-12T00:51:24.838Z,4.95
2018-12-12T00:54:33.417Z,3.55
2018-12-12T00:57:42.661Z,3.62
2018-12-12T01:00:50.072Z,3.58
2018-12-12T01:03:58.000Z,3.27
2018-12-12T01:07:05.637Z,5.03
2018-12-12T01:10:13.280Z,5.00
2018-12-12T01:13:21.382Z,5.17
2018-12-12T01:16:28.393Z,5.50
2018-12-12T01:19:35.744Z,6.60
2018-12-12T01:22:44.092Z,5.43
2018-12-12T01:25:52.820Z,5.80
2018-12-12T01:29:00.381Z,4.20
2018-12-12T01:32:09.041Z,4.20
2018-12-12T01:35:17.499Z,3.15
2018-12-12T01:38:24.889Z,4.97
2018-12-12T01:41:32.204Z,5.33
2018-12-12T01:44:39.250Z,5.00
2018-12-12T01:47:47.112Z,4.33
2018-12-12T01:50:55.107Z,4.80
2018-12-12T01:54:02.864Z,4.67
2018-12-12T01:57:10.380Z,6.53
2018-12-12T02:00:18.155Z,6.60
2018-12-12T02:03:25.424Z,5.60
2018-12-12T02:06:32.948Z,6.83
2018-12-12T02:09:40.577Z,7.17
2018-12-12T02:13:02.966Z,8.38
2018-12-12T02:16:11.746Z,8.68
2018-12-12T02:19:19.498Z,9.78
2018-12-12T02:22:26.808Z,9.23
2018-12-12T02:25:35.318Z,7.05
2018-12-12T02:28:43.764Z,8.58
2018-12-12T02:31:50.893Z,6.80
2018-12-12T02:34:58.415Z,6.28
2018-12-12T02:38:06.062Z,8.38
2018-12-12T02:41:13.899Z,9.20
2018-12-12T02:44:21.928Z,7.10
2018-12-12T02:47:29.772Z,6.30
2018-12-12T02:50:37.293Z,8.08
2018-12-12T02:53:44.539Z,7.60
2018-12-12T02:56:52.503Z,8.03
2018-12-12T03:00:00.510Z,7.72
2018-12-12T03:03:08.279Z,7.70
2018-12-12T03:06:16.194Z,7.83
2018-12-12T03:09:25.603Z,7.17
2018-12-12T03:12:33.224Z,7.08
2018-12-12T03:15:41.641Z,6.70
2018-12-12T03:18:49.550Z,6.70
2018-12-12T03:21:58.301Z,6.72
2018-12-12T03:25:06.399Z,6.95
2018-12-12T03:28:14.002Z,7.03
2018-12-12T03:31:21.556Z,6.80
2018-12-12T03:34:29.885Z,6.80
2018-12-12T03:37:37.904Z,8.53
2018-12-12T03:40:46.417Z,7.67
2018-12-12T03:43:54.286Z,7.00
2018-12-12T03:50:21.668Z,6.10
2018-12-12T03:53:29.592Z,6.80
2018-12-12T03:56:37.038Z,7.27
2018-12-12T03:59:44.478Z,5.65
2018-12-12T04:02:52.277Z,5.90
2018-12-12T04:05:59.348Z,4.33
2018-12-12T04:09:09.942Z,5.55
2018-12-12T04:12:17.363Z,6.10
2018-12-12T04:15:27.025Z,5.80
2018-12-12T04:18:45.429Z,6.40
2018-12-12T04:21:53.034Z,7.10
2018-12-12T04:25:10.837Z,5.08
2018-12-12T04:28:18.389Z,6.05
2018-12-12T04:31:25.742Z,4.73
2018-12-12T04:34:32.590Z,6.97
2018-12-12T04:37:40.539Z,5.28
2018-12-12T04:40:48.350Z,6.37
2018-12-12T04:43:54.755Z,5.30
2018-12-12T04:47:02.702Z,5.08
2018-12-12T04:50:10.256Z,4.70
2018-12-12T04:53:17.076Z,5.90
2018-12-12T04:56:24.722Z,6.75
2018-12-12T04:59:36.931Z,5.40
2018-12-12T05:02:55.680Z,5.10
2018-12-12T05:06:03.759Z,6.12
2018-12-12T05:09:10.331Z,6.00
2018-12-12T05:12:17.015Z,5.00
2018-12-12T05:15:24.005Z,5.37
2018-12-12T05:18:31.691Z,4.17
2018-12-12T05:21:40.359Z,5.22
2018-12-12T05:24:49.622Z,5.70
2018-12-12T05:27:57.302Z,4.78
2018-12-12T05:31:05.238Z,5.17
2018-12-12T05:34:13.142Z,5.25
2018-12-12T05:37:21.082Z,4.45
2018-12-12T05:40:29.579Z,6.97
2018-12-12T05:43:37.170Z,4.78
2018-12-12T05:46:47.549Z,6.17
2018-12-12T05:49:57.806Z,5.40
2018-12-12T05:53:04.825Z,5.58
2018-12-12T05:56:14.222Z,4.30
2018-12-12T05:59:21.169Z,6.53
2018-12-12T06:02:29.189Z,6.03
2018-12-12T06:05:36.029Z,5.12
2018-12-12T06:08:43.665Z,5.55
2018-12-12T06:11:52.482Z,6.08
2018-12-12T06:14:59.092Z,6.17
2018-12-12T06:18:07.124Z,5.58
2018-12-12T06:21:14.670Z,6.78
2018-12-12T06:24:23.170Z,4.92
2018-12-12T06:27:31.936Z,6.93
2018-12-12T06:30:40.420Z,6.90
2018-12-12T06:33:48.139Z,5.60
2018-12-12T06:36:54.350Z,5.23
2018-12-12T06:40:01.308Z,4.97
2018-12-12T06:43:09.346Z,5.92
2018-12-12T06:46:17.152Z,5.78
2018-12-12T06:49:24.708Z,6.40
2018-12-12T06:52:31.374Z,5.30
2018-12-12T06:55:38.087Z,5.90
2018-12-12T06:58:45.039Z,5.30
2018-12-12T07:01:51.738Z,7.57
2018-12-12T07:04:59.034Z,7.77
2018-12-12T07:08:05.066Z,6.92
2018-12-12T07:11:10.942Z,6.10
2018-12-12T07:14:16.942Z,14.25
2018-12-12T07:17:22.614Z,8.63
2018-12-12T07:20:28.569Z,7.90
2018-12-12T07:23:35.600Z,7.37
2018-12-12T07:26:41.524Z,8.95
2018-12-12T07:29:47.465Z,7.17
2018-12-12T07:32:53.876Z,6.62
2018-12-12T07:35:59.865Z,8.07
2018-12-12T07:39:08.748Z,5.75
2018-12-12T07:42:14.669Z,5.85
2018-12-12T07:45:39.795Z,6.30
2018-12-12T07:48:52.517Z,7.37
2018-12-12T07:52:17.881Z,7.78
2018-12-12T07:55:23.818Z,9.25
2018-12-12T07:58:29.775Z,8.80
2018-12-12T08:01:36.188Z,9.90
2018-12-12T08:04:42.235Z,7.85
2018-12-12T08:07:48.393Z,11.97
2018-12-12T08:10:54.887Z,12.45
2018-12-12T08:14:00.567Z,8.10
2018-12-12T08:17:06.505Z,9.43
2018-12-12T08:20:12.607Z,9.90
2018-12-12T08:23:19.164Z,8.63
2018-12-12T08:26:24.871Z,8.10
2018-12-12T08:29:30.816Z,8.30
2018-12-12T08:32:38.274Z,8.10
2018-12-12T08:35:44.204Z,7.92
2018-12-12T08:38:50.185Z,8.08
2018-12-12T08:41:58.263Z,10.13
2018-12-12T08:45:04.869Z,7.50
2018-12-12T08:48:11.561Z,7.33
2018-12-12T08:51:17.478Z,7.00
2018-12-12T08:54:23.227Z,9.73
2018-12-12T08:57:29.371Z,21.93
2018-12-12T09:00:35.790Z,6.22
2018-12-12T09:03:41.420Z,6.12
2018-12-12T09:06:47.147Z,8.00
2018-12-12T09:09:53.592Z,5.10
2018-12-12T09:12:59.562Z,6.30
2018-12-12T09:16:05.957Z,6.45
2018-12-12T09:19:11.754Z,6.00
2018-12-12T09:22:17.230Z,5.13
2018-12-12T09:25:23.120Z,4.30
2018-12-12T09:28:29.545Z,5.23
2018-12-12T09:31:37.691Z,5.05
2018-12-12T09:34:45.316Z,4.70
2018-12-12T09:37:51.302Z,5.83
2018-12-12T09:40:57.400Z,5.45
2018-12-12T09:44:03.367Z,5.40
2018-12-12T09:47:09.391Z,4.60
2018-12-12T09:50:15.766Z,5.30
2018-12-12T09:53:23.128Z,7.55
2018-12-12T09:56:30.701Z,7.55
2018-12-12T09:59:36.647Z,6.62
2018-12-12T10:02:42.730Z,5.20
2018-12-12T10:05:48.494Z,8.00
2018-12-12T10:08:54.495Z,6.57
2018-12-12T10:12:00.225Z,7.37
2018-12-12T10:15:07.402Z,7.27
2018-12-12T10:18:13.384Z,6.62
2018-12-12T10:21:19.309Z,6.53
2018-12-12T10:24:25.798Z,5.72
2018-12-12T10:27:32.538Z,5.20
2018-12-12T10:30:38.633Z,4.05
2018-12-12T10:33:44.665Z,5.47
2018-12-12T10:42:15.061Z,6.40
2018-12-12T10:45:20.987Z,5.10
2018-12-12T10:48:26.960Z,6.37
2018-12-12T10:51:34.322Z,6.67
2018-12-12T10:54:40.652Z,6.87
2018-12-12T10:57:46.348Z,7.95
2018-12-12T11:00:57.572Z,7.00
2018-12-12T11:04:04.249Z,8.50
2018-12-12T11:07:09.981Z,10.83
2018-12-12T11:10:16.293Z,8.38
2018-12-12T11:13:22.298Z,7.92
2018-12-12T11:16:28.753Z,8.18
2018-12-12T11:19:34.665Z,7.72
2018-12-12T11:22:40.632Z,7.00
2018-12-12T11:25:46.679Z,7.67
2018-12-12T11:28:52.687Z,7.00
2018-12-12T11:31:58.356Z,6.53
2018-12-12T11:35:04.826Z,5.30
2018-12-12T11:38:10.703Z,6.40
2018-12-12T11:41:16.672Z,5.20
2018-12-12T11:44:22.895Z,4.83
2018-12-12T11:47:29.131Z,4.30
2018-12-12T11:50:35.129Z,5.13
2018-12-12T11:53:40.796Z,5.03
2018-12-12T11:56:46.793Z,6.13
2018-12-12T11:59:52.502Z,6.30
2018-12-12T12:02:58.195Z,5.73
2018-12-12T12:06:03.942Z,7.15
2018-12-12T12:09:10.997Z,6.13
2018-12-12T12:12:16.736Z,7.63
2018-12-12T12:15:24.171Z,8.10
2018-12-12T12:18:31.136Z,6.05
2018-12-12T12:21:37.045Z,7.10
2018-12-12T12:24:42.697Z,7.10
2018-12-12T12:27:48.308Z,8.00
2018-12-12T12:30:54.279Z,8.30
2018-12-12T12:34:03.242Z,7.60
2018-12-12T12:37:08.549Z,8.10
2018-12-12T12:40:14.924Z,8.50
2018-12-12T12:43:20.644Z,8.10
2018-12-12T12:46:26.866Z,8.48
2018-12-12T12:49:32.815Z,10.00
2018-12-12T12:52:38.784Z,8.78
2018-12-12T12:55:44.738Z,10.43
2018-12-12T12:58:50.388Z,11.30
2018-12-12T13:01:56.359Z,9.33
2018-12-12T13:05:03.318Z,8.38
2018-12-12T13:08:09.024Z,7.90
2018-12-12T13:11:15.029Z,9.28
2018-12-12T13:14:21.304Z,7.75
2018-12-12T13:17:27.339Z,7.90
2018-12-12T13:20:33.403Z,17.05
2018-12-12T13:23:39.114Z,15.00
2018-12-12T13:26:45.575Z,11.78
2018-12-12T13:29:51.604Z,9.60
2018-12-12T13:32:57.297Z,9.00
2018-12-12T13:36:04.602Z,9.70
2018-12-12T13:39:10.545Z,9.10
2018-12-12T13:42:16.652Z,8.53
2018-12-12T13:45:22.935Z,10.30
2018-12-12T13:48:29.398Z,9.15
2018-12-12T13:51:35.063Z,10.85
2018-12-12T13:54:40.993Z,10.72
2018-12-12T13:57:46.687Z,10.18
2018-12-12T14:00:53.699Z,10.10
2018-12-12T14:03:59.604Z,7.50
2018-12-12T14:07:05.713Z,8.43
2018-12-12T14:10:12.171Z,7.72
2018-12-12T14:13:17.895Z,9.85
2018-12-12T14:16:23.860Z,11.07
2018-12-12T14:19:31.120Z,10.87
2018-12-12T14:22:37.089Z,11.35
2018-12-12T14:25:43.018Z,9.00
2018-12-12T14:28:52.972Z,9.43
2018-12-12T14:31:59.089Z,8.88
2018-12-12T14:35:05.976Z,10.43
2018-12-12T14:38:12.098Z,9.75
2018-12-12T14:41:17.824Z,10.10
2018-12-12T14:44:23.709Z,10.53
2018-12-12T14:47:30.285Z,11.90
2018-12-12T14:50:36.227Z,11.88
2018-12-12T14:53:41.919Z,12.37
2018-12-12T14:56:47.868Z,10.50
2018-12-12T14:59:53.821Z,12.80
2018-12-12T15:02:59.463Z,10.90
2018-12-12T15:06:05.861Z,9.20
2018-12-12T15:09:11.796Z,10.55
2018-12-12T15:12:18.910Z,10.15
2018-12-12T15:15:25.545Z,9.83
2018-12-12T15:18:33.623Z,9.83
2018-12-12T15:21:39.864Z,10.72
2018-12-12T15:24:45.793Z,9.38
2018-12-12T15:27:51.901Z,11.20
2018-12-12T15:30:57.499Z,9.63
2018-12-12T15:34:03.122Z,8.73
2018-12-12T15:37:09.055Z,10.38
2018-12-12T15:40:14.943Z,11.73
2018-12-12T15:43:20.684Z,10.20
2018-12-12T15:46:26.273Z,10.45
2018-12-12T15:49:32.275Z,9.70
2018-12-12T15:52:38.167Z,8.85
2018-12-12T15:55:43.771Z,9.25
2018-12-12T15:58:49.743Z,10.30
2018-12-12T16:01:55.370Z,10.80
2018-12-12T16:05:01.311Z,13.35
2018-12-12T16:08:07.895Z,10.48
2018-12-12T16:11:14.771Z,11.57
2018-12-12T16:14:21.291Z,10.35
2018-12-12T16:17:27.368Z,15.65
2018-12-12T16:20:34.842Z,12.37
2018-12-12T16:23:42.464Z,12.18
2018-12-12T16:26:48.789Z,12.25
2018-12-12T16:30:02.961Z,11.43
2018-12-12T16:33:09.260Z,11.48
2018-12-12T16:36:16.134Z,10.63
2018-12-12T16:39:24.507Z,9.68
2018-12-12T16:42:31.893Z,11.12
2018-12-12T16:45:40.451Z,10.13
2018-12-12T16:48:46.791Z,11.12
2018-12-12T16:51:52.944Z,10.85
2018-12-12T16:54:59.845Z,10.95
2018-12-12T16:58:05.899Z,12.73
2018-12-12T17:01:12.399Z,12.37
2018-12-12T17:04:19.188Z,9.93
2018-12-12T17:07:25.708Z,11.03
2018-12-12T17:10:33.715Z,8.83
2018-12-12T17:13:40.140Z,11.03
2018-12-12T17:16:46.868Z,11.25
2018-12-12T17:19:54.081Z,11.85
2018-12-12T17:23:02.387Z,11.17
2018-12-12T17:26:09.175Z,10.18
2018-12-12T17:29:15.258Z,10.38
2018-12-12T17:32:21.423Z,11.05
2018-12-12T17:35:27.027Z,9.00
2018-12-12T17:38:33.237Z,11.22
2018-12-12T17:41:39.571Z,10.95
2018-12-12T17:44:45.454Z,11.33
2018-12-12T17:47:51.207Z,11.00
2018-12-12T17:50:56.758Z,9.90
2018-12-12T17:54:02.641Z,10.50
2018-12-12T17:57:09.287Z,10.08
2018-12-12T18:00:15.973Z,10.28
2018-12-12T18:03:23.588Z,11.57
2018-12-12T18:06:53.621Z,11.20
2018-12-12T18:09:59.545Z,10.60
2018-12-12T18:13:05.709Z,11.68
2018-12-12T18:16:12.970Z,11.60
2018-12-12T18:19:18.583Z,11.35
2018-12-12T18:22:24.465Z,10.98
2018-12-12T18:25:32.060Z,10.70
2018-12-12T18:28:38.037Z,11.25
2018-12-12T18:31:43.918Z,10.80
2018-12-12T18:34:55.259Z,9.40
2018-12-12T18:38:01.129Z,9.73
2018-12-12T18:41:07.105Z,10.82
2018-12-12T18:44:14.689Z,10.95
2018-12-12T18:47:20.908Z,11.68
2018-12-12T18:50:26.518Z,9.48
2018-12-12T18:53:53.940Z,11.10
2018-12-12T18:57:01.620Z,10.48
2018-12-12T19:00:08.082Z,11.35
2018-12-12T19:03:14.948Z,10.58
2018-12-12T19:06:20.870Z,11.05
2018-12-12T19:09:26.752Z,11.03
2018-12-12T19:12:32.639Z,10.55
2018-12-12T19:15:38.499Z,11.03
2018-12-12T19:18:44.359Z,10.17
2018-12-12T19:21:50.007Z,12.73
2018-12-12T19:24:55.878Z,11.10
2018-12-12T19:28:01.458Z,10.38
2018-12-12T19:31:07.060Z,10.53
2018-12-12T19:34:12.939Z,12.20
2018-12-12T19:37:18.997Z,12.80
2018-12-12T19:40:25.056Z,12.23
2018-12-12T19:43:30.967Z,11.97
2018-12-12T19:46:36.851Z,12.28
2018-12-12T19:49:53.869Z,13.68
2018-12-12T19:52:59.714Z,14.80
2018-12-12T19:56:05.373Z,13.17
2018-12-12T19:59:11.147Z,12.10
2018-12-12T20:02:17.273Z,13.90
2018-12-12T20:05:23.195Z,12.98
2018-12-12T20:08:30.737Z,13.72
2018-12-12T20:11:37.080Z,17.10
2018-12-12T20:14:42.692Z,13.80
2018-12-12T20:17:48.391Z,13.32
2018-12-12T20:20:54.029Z,14.95
2018-12-12T20:23:59.984Z,14.00
2018-12-12T20:27:06.570Z,15.15
2018-12-12T20:30:12.527Z,14.45
2018-12-12T20:33:18.509Z,14.60
2018-12-12T20:36:24.623Z,12.60
2018-12-12T20:39:31.034Z,13.80
2018-12-12T20:42:37.029Z,13.45
2018-12-12T20:45:42.925Z,16.97
2018-12-12T20:48:48.901Z,13.78
2018-12-12T20:51:54.774Z,15.30
2018-12-12T20:55:00.687Z,13.37
2018-12-12T20:58:06.352Z,15.33
2018-12-12T21:01:11.966Z,14.73
2018-12-12T21:04:17.885Z,12.63
2018-12-12T21:07:25.081Z,13.70
2018-12-12T21:10:31.421Z,14.13
2018-12-12T21:13:38.104Z,14.30
2018-12-12T21:16:43.760Z,14.00
2018-12-12T21:19:49.373Z,12.47
2018-12-12T21:22:56.981Z,12.63
2018-12-12T21:26:03.379Z,13.65
2018-12-12T21:29:09.260Z,14.75
2018-12-12T21:32:15.214Z,14.45
2018-12-12T21:35:20.806Z,13.18
2018-12-12T21:38:26.698Z,14.38
2018-12-12T21:41:32.275Z,13.38
2018-12-12T21:44:38.186Z,13.48
2018-12-12T21:47:43.899Z,13.73
2018-12-12T21:50:49.839Z,15.43
2018-12-12T21:53:56.016Z,14.40
2018-12-12T21:57:01.904Z,15.18
2018-12-12T22:00:11.760Z,13.65
2018-12-12T22:03:17.382Z,14.03
2018-12-12T22:06:23.796Z,14.60
2018-12-12T22:09:29.656Z,13.95
2018-12-12T22:12:35.678Z,14.05
2018-12-12T22:15:41.547Z,13.13
2018-12-12T22:18:47.572Z,14.33
2018-12-12T22:21:53.453Z,10.95
2018-12-12T22:24:59.336Z,12.65
2018-12-12T22:28:05.201Z,13.60
2018-12-12T22:31:11.101Z,13.85
2018-12-12T22:34:16.708Z,12.88
2018-12-12T22:37:22.280Z,14.30
2018-12-12T22:40:28.608Z,12.45
2018-12-12T22:43:34.472Z,13.25
2018-12-12T22:46:40.612Z,16.70
2018-12-12T22:49:46.223Z,12.85
2018-12-12T22:52:52.067Z,13.45
2018-12-12T22:55:57.667Z,14.20
2018-12-12T22:59:03.694Z,12.58
2018-12-12T23:02:09.265Z,12.47
2018-12-12T23:05:14.872Z,13.55
2018-12-12T23:08:20.802Z,15.00
2018-12-12T23:11:26.421Z,14.53
2018-12-12T23:14:32.049Z,14.83
2018-12-12T23:17:37.929Z,17.30
2018-12-12T23:20:43.959Z,16.12
2018-12-12T23:23:56.558Z,13.78
2018-12-12T23:27:02.194Z,14.50
2018-12-12T23:30:09.611Z,15.00
2018-12-12T23:33:16.291Z,17.23
2018-12-12T23:36:26.887Z,16.27
2018-12-12T23:39:29.876Z,17.10
2018-12-12T23:42:35.733Z,16.32
2018-12-12T23:45:41.373Z,17.92
2018-12-12T23:48:46.986Z,18.40
2018-12-12T23:51:53.336Z,13.83
2018-12-12T23:54:59.335Z,16.48
2018-12-12T23:58:05.220Z,15.68
